Time;durP1;ratioP1;P1;durP2;ratioP2;P2;SDS_P1;SDS_P2;PMS_P1;PMS_P2;Temp;Humidity;BMP_temperature;BMP_pressure;BME280_temperature;BME280_humidity;BME280_pressure;Samples;Min_cycle;Max_cycle;Signal;HPM_P1;HPM_P2
2023/12/07 00:00:45;;;;;;;12.82;7.45;;;;;;;0.32;100.00;93176.94;2115084;28;20132;-76
2023/12/07 00:01:46;;;;;;;13.25;7.32;;;;;;;0.23;100.00;93174.53;2115058;28;20042;-80
2023/12/07 00:02:47;;;;;;;11.05;7.40;;;;;;;0.27;100.00;93180.59;2122884;27;20114;-78
2023/12/07 00:03:48;;;;;;;12.73;7.80;;;;;;;0.32;100.00;93179.56;2121317;27;20049;-76
2023/12/07 00:04:49;;;;;;;14.52;9.02;;;;;;;0.35;100.00;93174.38;2119283;27;20027;-79
2023/12/07 00:05:50;;;;;;;12.02;7.45;;;;;;;0.42;100.00;93178.97;2130920;27;20479;-80
2023/12/07 00:06:51;;;;;;;13.30;7.75;;;;;;;0.41;100.00;93166.94;2123494;27;20314;-77
2023/12/07 00:07:52;;;;;;;11.50;7.25;;;;;;;0.38;100.00;93175.53;2123774;27;20403;-78
2023/12/07 00:08:53;;;;;;;14.85;7.80;;;;;;;0.28;100.00;93176.09;2128356;27;20031;-77
2023/12/07 00:09:54;;;;;;;11.18;7.13;;;;;;;0.27;100.00;93170.09;2114771;28;20475;-78
2023/12/07 00:10:55;;;;;;;13.18;7.93;;;;;;;0.16;100.00;93180.41;2106696;28;20027;-78
2023/12/07 00:11:56;;;;;;;14.02;7.50;;;;;;;0.30;100.00;93179.13;2120063;27;20049;-78
2023/12/07 00:12:57;;;;;;;13.55;7.38;;;;;;;0.27;100.00;93174.59;2125091;27;20027;-77
2023/12/07 00:13:57;;;;;;;15.18;7.80;;;;;;;0.35;100.00;93184.09;2131386;27;20515;-77
2023/12/07 00:14:58;;;;;;;11.18;7.28;;;;;;;0.35;100.00;93176.22;2130031;27;20042;-75
2023/12/07 00:15:59;;;;;;;14.07;8.02;;;;;;;0.33;100.00;93175.81;2123202;27;20101;-80
2023/12/07 00:17:00;;;;;;;10.93;7.70;;;;;;;0.40;100.00;93181.97;2129621;27;20030;-79
2023/12/07 00:18:02;;;;;;;12.13;7.18;;;;;;;0.45;100.00;93180.91;2130404;27;20091;-78
2023/12/07 00:19:03;;;;;;;9.10;6.65;;;;;;;0.35;100.00;93179.63;2131677;27;20098;-79
2023/12/07 00:20:05;;;;;;;11.10;7.10;;;;;;;0.35;100.00;93179.63;2125390;27;20429;-81
2023/12/07 00:21:11;;;;;;;10.98;7.20;;;;;;;0.25;100.00;93173.06;2123917;27;20068;-78
2023/12/07 00:22:11;;;;;;;13.52;7.30;;;;;;;0.07;100.00;93182.50;2122866;27;20074;-80
2023/12/07 00:23:13;;;;;;;12.50;6.97;;;;;;;0.18;100.00;93182.69;2114646;28;20069;-79
2023/12/07 00:24:14;;;;;;;11.73;7.10;;;;;;;0.30;100.00;93177.25;2123129;27;20023;-77
2023/12/07 00:25:15;;;;;;;11.73;7.00;;;;;;;0.30;100.00;93184.38;2123749;27;20044;-81
2023/12/07 00:26:16;;;;;;;11.60;7.32;;;;;;;0.22;100.00;93173.75;2132286;27;20094;-75
2023/12/07 00:27:17;;;;;;;10.32;6.60;;;;;;;0.28;100.00;93179.50;2130864;27;20030;-75
2023/12/07 00:28:18;;;;;;;10.43;7.07;;;;;;;0.27;100.00;93175.34;2119178;27;20023;-78
2023/12/07 00:29:19;;;;;;;11.98;7.00;;;;;;;0.36;100.00;93180.38;2118967;27;20041;-79
2023/12/07 00:30:20;;;;;;;11.15;6.60;;;;;;;0.33;100.00;93175.81;2122199;27;20408;-79
2023/12/07 00:31:21;;;;;;;11.45;6.40;;;;;;;0.15;100.00;93170.25;2123257;27;20673;-76
2023/12/07 00:32:23;;;;;;;11.82;7.18;;;;;;;0.19;100.00;93178.97;2123144;27;20027;-79
2023/12/07 00:33:26;;;;;;;10.88;6.82;;;;;;;0.18;100.00;93172.94;2125629;27;20097;-83
2023/12/07 00:34:27;;;;;;;10.27;6.07;;;;;;;0.32;100.00;93182.94;2129787;27;20518;-78
2023/12/07 00:35:28;;;;;;;8.55;6.70;;;;;;;0.29;100.00;93182.88;2119818;27;20031;-79
2023/12/07 00:36:29;;;;;;;10.95;7.28;;;;;;;0.24;100.00;93186.56;2130485;27;20110;-76
2023/12/07 00:37:30;;;;;;;10.32;6.07;;;;;;;0.30;100.00;93182.53;2126436;27;20018;-81
2023/12/07 00:38:32;;;;;;;12.85;6.70;;;;;;;0.33;100.00;93176.56;2123249;27;20048;-77
2023/12/07 00:39:33;;;;;;;10.77;6.95;;;;;;;0.30;100.00;93173.88;2129878;27;20027;-79
2023/12/07 00:40:36;;;;;;;8.57;7.00;;;;;;;0.29;100.00;93175.00;2129648;27;20672;-82
2023/12/07 00:41:46;;;;;;;11.52;6.50;;;;;;;0.16;100.00;93175.13;2123620;27;20379;-79
2023/12/07 00:42:47;;;;;;;9.43;6.97;;;;;;;0.19;100.00;93173.69;2127440;27;20467;-78
2023/12/07 00:43:48;;;;;;;10.50;6.90;;;;;;;0.18;100.00;93172.94;2129024;27;20122;-78
2023/12/07 00:44:49;;;;;;;9.77;6.97;;;;;;;0.21;100.00;93166.22;2131499;27;20725;-78
2023/12/07 00:45:50;;;;;;;8.32;6.50;;;;;;;0.28;100.00;93170.84;2131262;27;20019;-78
2023/12/07 00:46:55;;;;;;;11.73;6.95;;;;;;;0.31;100.00;93175.38;2131669;27;20023;-78
2023/12/07 00:47:56;;;;;;;10.75;6.55;;;;;;;0.31;100.00;93178.81;2126126;27;20019;-82
2023/12/07 00:48:57;;;;;;;11.68;7.35;;;;;;;0.24;100.00;93182.06;2122755;27;20015;-77
2023/12/07 00:49:58;;;;;;;11.98;6.93;;;;;;;0.26;100.00;93186.94;2116077;27;20100;-78
2023/12/07 00:50:59;;;;;;;11.57;7.15;;;;;;;0.26;100.00;93184.31;2121081;27;20022;-78
2023/12/07 00:52:00;;;;;;;10.00;7.28;;;;;;;0.30;100.00;93185.16;2125101;27;20027;-77
2023/12/07 00:53:01;;;;;;;11.30;6.82;;;;;;;0.23;100.00;93182.41;2122798;27;20076;-77
2023/12/07 00:54:02;;;;;;;13.65;7.32;;;;;;;0.19;100.00;93194.72;2122125;27;20030;-75
2023/12/07 00:55:03;;;;;;;10.43;6.57;;;;;;;0.19;100.00;93181.59;2129075;27;20171;-77
2023/12/07 00:56:09;;;;;;;11.57;6.65;;;;;;;0.15;100.00;93193.91;2115031;27;20031;-81
2023/12/07 00:57:10;;;;;;;12.52;6.68;;;;;;;0.13;100.00;93189.00;2118896;27;20077;-76
2023/12/07 00:58:11;;;;;;;11.35;7.00;;;;;;;0.07;100.00;93187.00;2114030;27;20462;-77
2023/12/07 00:59:12;;;;;;;10.63;6.90;;;;;;;0.17;100.00;93183.78;2122824;27;20027;-77
2023/12/07 01:00:13;;;;;;;9.90;6.75;;;;;;;0.16;100.00;93179.63;2131453;27;20665;-79
2023/12/07 01:01:14;;;;;;;11.77;7.03;;;;;;;0.11;100.00;93185.19;2131007;27;20101;-76
2023/12/07 01:02:15;;;;;;;9.77;6.60;;;;;;;0.21;100.00;93184.63;2131636;27;20027;-79
2023/12/07 01:03:16;;;;;;;10.48;6.78;;;;;;;0.20;100.00;93181.22;2130987;27;20076;-74
2023/12/07 01:04:17;;;;;;;12.55;6.85;;;;;;;0.28;100.00;93184.75;2128146;27;20026;-80
2023/12/07 01:05:19;;;;;;;11.02;7.10;;;;;;;0.23;100.00;93174.53;2131434;27;20067;-77
2023/12/07 01:06:20;;;;;;;10.35;6.68;;;;;;;0.24;100.00;93191.81;2121699;27;20027;-79
2023/12/07 01:07:21;;;;;;;9.65;6.88;;;;;;;0.24;100.00;93186.56;2115956;27;20037;-79
2023/12/07 01:08:22;;;;;;;9.10;6.70;;;;;;;0.22;100.00;93179.03;2114183;28;20050;-82
2023/12/07 01:09:23;;;;;;;9.50;6.43;;;;;;;0.06;100.00;93186.22;2124808;27;20359;-77
2023/12/07 01:10:24;;;;;;;10.32;6.50;;;;;;;0.13;100.00;93191.63;2129482;27;20030;-78
2023/12/07 01:11:25;;;;;;;10.63;6.22;;;;;;;0.10;100.00;93183.66;2131022;27;20018;-75
2023/12/07 01:12:26;;;;;;;12.13;6.38;;;;;;;0.09;100.00;93188.16;2126621;27;20037;-82
2023/12/07 01:13:27;;;;;;;10.15;6.47;;;;;;;0.06;100.00;93188.09;2118899;27;20039;-77
2023/12/07 01:14:28;;;;;;;9.38;6.10;;;;;;;0.06;100.00;93191.47;2114112;28;20019;-79
2023/12/07 01:15:29;;;;;;;12.05;7.03;;;;;;;-0.08;100.00;93189.34;2127145;27;20049;-77
2023/12/07 01:16:30;;;;;;;10.63;6.78;;;;;;;0.01;100.00;93194.41;2131122;27;20022;-81
2023/12/07 01:17:31;;;;;;;9.07;6.07;;;;;;;0.03;100.00;93180.91;2122687;27;20421;-76
2023/12/07 01:18:32;;;;;;;8.68;6.40;;;;;;;-0.03;100.00;93183.81;2130898;27;20026;-80
2023/12/07 01:19:34;;;;;;;8.95;6.80;;;;;;;-0.27;100.00;93186.72;2131254;27;20056;-80
2023/12/07 01:20:35;;;;;;;9.65;6.40;;;;;;;-0.25;100.00;93189.75;2129921;27;20382;-75
2023/12/07 01:21:37;;;;;;;11.43;7.03;;;;;;;-0.18;100.00;93191.75;2122386;27;20110;-79
2023/12/07 01:22:41;;;;;;;9.30;6.57;;;;;;;-0.18;100.00;93191.75;2113955;28;20128;-77
2023/12/07 01:23:42;;;;;;;9.27;6.35;;;;;;;-0.18;100.00;93191.75;2098446;28;20036;-81
2023/12/07 01:24:44;;;;;;;9.20;6.35;;;;;;;-0.29;100.00;93196.81;2106197;27;20039;-79
2023/12/07 01:25:44;;;;;;;8.60;6.65;;;;;;;-0.37;100.00;93188.03;2114283;28;20555;-77
2023/12/07 01:26:45;;;;;;;9.75;6.38;;;;;;;-0.41;100.00;93202.19;2122741;27;20027;-81
2023/12/07 01:27:47;;;;;;;12.07;6.55;;;;;;;-0.45;100.00;93198.72;2130846;27;20050;-80
2023/12/07 01:28:48;;;;;;;8.82;6.20;;;;;;;-0.37;100.00;93188.03;2130947;27;20564;-77
2023/12/07 01:29:49;;;;;;;7.63;5.38;;;;;;;-0.39;100.00;93198.13;2130257;27;20067;-79
2023/12/07 01:30:50;;;;;;;7.43;5.88;;;;;;;-0.35;100.00;93203.41;2124235;27;20027;-78
2023/12/07 01:31:51;;;;;;;10.30;6.53;;;;;;;-0.42;100.00;93205.91;2114091;28;20023;-82
2023/12/07 01:32:52;;;;;;;8.27;5.85;;;;;;;-0.45;100.00;93201.34;2122482;27;20039;-81
2023/12/07 01:33:53;;;;;;;8.32;5.90;;;;;;;-0.48;100.00;93196.78;2125799;27;20018;-78
2023/12/07 01:34:54;;;;;;;7.68;5.35;;;;;;;-0.56;100.00;93203.75;2129259;27;20479;-81
2023/12/07 01:35:55;;;;;;;8.27;5.63;;;;;;;-0.55;100.00;93198.16;2123349;27;20048;-77
2023/12/07 01:36:56;;;;;;;8.70;5.78;;;;;;;-0.55;100.00;93206.03;2127969;27;20733;-77
2023/12/07 01:37:57;;;;;;;7.20;5.68;;;;;;;-0.55;100.00;93207.91;2124397;27;20023;-79
2023/12/07 01:38:58;;;;;;;7.32;5.18;;;;;;;-0.64;100.00;93209.97;2129668;27;20086;-76
2023/12/07 01:39:59;;;;;;;8.15;5.32;;;;;;;-0.72;100.00;93209.03;2128271;27;20034;-77
2023/12/07 01:41:00;;;;;;;7.05;5.35;;;;;;;-0.71;100.00;93202.69;2124126;27;20019;-78
2023/12/07 01:42:11;;;;;;;7.20;4.93;;;;;;;-0.75;100.00;93207.09;2126914;27;20653;-79
2023/12/07 01:43:12;;;;;;;9.63;5.15;;;;;;;-0.87;100.00;93201.97;2127309;27;20151;-79
2023/12/07 01:44:13;;;;;;;6.75;5.38;;;;;;;-0.88;100.00;93201.22;2122469;27;20015;-80
2023/12/07 01:45:14;;;;;;;8.38;5.13;;;;;;;-0.92;100.00;93207.44;2113770;28;20128;-78
2023/12/07 01:46:17;;;;;;;7.43;5.13;;;;;;;-0.87;100.00;93209.84;2114018;28;20024;-79
2023/12/07 01:47:18;;;;;;;7.35;5.15;;;;;;;-0.86;100.00;93206.88;2123294;27;20045;-79
2023/12/07 01:48:21;;;;;;;8.85;5.20;;;;;;;-0.85;100.00;93207.63;2122455;27;20026;-80
2023/12/07 01:49:22;;;;;;;6.85;5.13;;;;;;;-0.83;100.00;93208.06;2122604;27;20581;-77
2023/12/07 01:50:23;;;;;;;7.32;4.90;;;;;;;-0.81;100.00;93209.22;2128126;27;20079;-79
2023/12/07 01:51:25;;;;;;;6.63;5.20;;;;;;;-0.85;100.00;93207.63;2130668;27;20030;-80
2023/12/07 01:52:29;;;;;;;11.73;4.97;;;;;;;-0.95;100.00;93202.91;2122409;27;20019;-76
2023/12/07 01:53:30;;;;;;;8.65;5.38;;;;;;;-0.91;100.00;93206.38;2131208;27;20057;-82
2023/12/07 01:54:31;;;;;;;6.75;4.80;;;;;;;-0.95;100.00;93210.78;2131171;27;20628;-75
2023/12/07 01:55:33;;;;;;;10.38;5.38;;;;;;;-1.11;100.00;93205.53;2131698;27;20026;-77
2023/12/07 01:56:35;;;;;;;6.82;4.55;;;;;;;-0.90;100.00;93206.03;2124250;27;20171;-83
2023/12/07 01:57:37;;;;;;;7.78;5.30;;;;;;;-0.83;100.00;93205.44;2124777;27;21769;-76
2023/12/07 01:58:38;;;;;;;6.60;5.30;;;;;;;-0.99;100.00;93202.81;2131614;27;20037;-80
2023/12/07 01:59:39;;;;;;;6.88;4.75;;;;;;;-1.19;100.00;93199.34;2131451;27;20053;-78
2023/12/07 02:00:40;;;;;;;5.93;4.60;;;;;;;-1.16;100.00;93201.31;2130806;27;20029;-80
2023/12/07 02:01:41;;;;;;;8.02;4.55;;;;;;;-1.13;100.00;93203.25;2113812;28;20024;-80
2023/12/07 02:02:45;;;;;;;7.25;4.93;;;;;;;-1.17;100.00;93202.41;2122545;27;20156;-76
2023/12/07 02:03:46;;;;;;;5.75;4.70;;;;;;;-1.06;100.00;93200.78;2130541;27;20475;-77
2023/12/07 02:04:48;;;;;;;6.68;4.70;;;;;;;-1.24;100.00;93198.84;2130237;27;20018;-79
2023/12/07 02:05:51;;;;;;;5.38;4.63;;;;;;;-1.17;100.00;93197.16;2113773;27;20037;-78
2023/12/07 02:06:54;;;;;;;6.72;4.40;;;;;;;-1.17;100.00;93199.03;2127487;27;20102;-82
2023/12/07 02:07:55;;;;;;;5.72;4.53;;;;;;;-1.17;100.00;93201.66;2117835;27;20037;-79
2023/12/07 02:08:56;;;;;;;7.38;4.95;;;;;;;-1.33;100.00;93196.41;2122382;27;20023;-77
2023/12/07 02:09:58;;;;;;;5.78;3.90;;;;;;;-1.35;100.00;93203.84;2128044;27;20075;-78
2023/12/07 02:10:59;;;;;;;7.03;4.50;;;;;;;-1.12;100.00;93201.38;2120606;27;20076;-76
2023/12/07 02:12:01;;;;;;;7.47;4.45;;;;;;;-1.16;100.00;93203.16;2123564;27;20019;-79
2023/12/07 02:13:03;;;;;;;5.85;4.70;;;;;;;-1.27;100.00;93195.06;2124769;27;20586;-78
2023/12/07 02:14:04;;;;;;;6.03;4.43;;;;;;;-1.27;100.00;93198.44;2126805;27;20106;-80
2023/12/07 02:15:07;;;;;;;6.57;4.10;;;;;;;-1.27;100.00;93197.69;2129443;27;20035;-79
2023/12/07 02:16:14;;;;;;;6.03;4.65;;;;;;;-1.22;100.00;93194.81;2123599;27;20023;-78
2023/12/07 02:17:19;;;;;;;4.93;4.43;;;;;;;-1.24;100.00;93190.97;2115145;27;20502;-79
2023/12/07 02:18:33;;;;;;;4.95;4.00;;;;;;;-1.34;100.00;93187.78;2122366;27;20663;-78
2023/12/07 02:19:52;;;;;;;7.03;4.43;;;;;;;-1.33;100.00;93194.53;2128666;27;20474;-78
2023/12/07 02:21:30;;;;;;;4.63;3.35;;;;;;;-1.39;100.00;93198.53;2122019;27;20084;-82
2023/12/07 02:22:51;;;;;;;5.63;4.07;;;;;;;-1.70;100.00;93196.63;2115399;27;20055;-82
2023/12/07 02:23:54;;;;;;;5.65;4.07;;;;;;;-1.59;100.00;93199.50;2123184;27;20030;-78
2023/12/07 02:25:14;;;;;;;4.47;3.78;;;;;;;-1.46;100.00;93198.34;2130567;27;20026;-78
2023/12/07 02:26:20;;;;;;;5.93;4.10;;;;;;;-1.44;100.00;93205.88;2130567;27;20026;-78
2023/12/07 02:27:47;;;;;;;6.45;4.07;;;;;;;-1.50;100.00;93199.34;2130254;27;20045;-80
2023/12/07 02:28:48;;;;;;;5.85;4.07;;;;;;;-1.58;100.00;93204.44;2125739;27;20019;-78
2023/12/07 02:29:49;;;;;;;4.82;4.05;;;;;;;-1.61;100.00;93199.09;2129566;27;20022;-80
2023/12/07 02:30:50;;;;;;;5.97;3.75;;;;;;;-1.66;100.00;93204.59;2127553;27;20034;-78
2023/12/07 02:31:51;;;;;;;5.93;4.25;;;;;;;-1.68;100.00;93199.66;2130211;27;20660;-76
2023/12/07 02:32:52;;;;;;;5.10;4.05;;;;;;;-1.81;100.00;93195.59;2126260;27;20352;-78
2023/12/07 02:33:53;;;;;;;5.20;3.80;;;;;;;-1.83;100.00;93195.19;2124689;27;20244;-78
2023/12/07 02:34:54;;;;;;;5.25;4.53;;;;;;;-1.78;100.00;93197.56;2128145;27;20101;-79
2023/12/07 02:35:55;;;;;;;5.22;3.85;;;;;;;-1.83;100.00;93203.03;2121002;28;20019;-78
2023/12/07 02:36:59;;;;;;;6.05;4.10;;;;;;;-1.85;100.00;93202.59;2127188;27;20019;-80
2023/12/07 02:38:01;;;;;;;5.03;3.70;;;;;;;-1.89;100.00;93205.16;2125547;27;20114;-81
2023/12/07 02:39:03;;;;;;;6.53;4.38;;;;;;;-1.84;100.00;93218.00;2122618;27;20019;-78
2023/12/07 02:40:10;;;;;;;6.13;4.20;;;;;;;-1.92;100.00;93202.44;2120716;28;20015;-77
2023/12/07 02:41:11;;;;;;;7.15;4.05;;;;;;;-1.92;100.00;93202.44;2114067;28;20382;-79
2023/12/07 02:42:15;;;;;;;5.07;3.90;;;;;;;-1.98;100.00;93203.75;2115151;28;20039;-76
2023/12/07 02:43:16;;;;;;;5.38;4.47;;;;;;;-1.92;100.00;93210.28;2122804;27;20019;-76
2023/12/07 02:44:19;;;;;;;5.60;4.10;;;;;;;-1.87;100.00;93202.19;2131338;27;20023;-76
2023/12/07 02:45:21;;;;;;;7.53;4.13;;;;;;;-1.93;100.00;93203.50;2131638;27;20023;-79
2023/12/07 02:46:22;;;;;;;7.07;3.88;;;;;;;-1.92;100.00;93207.66;2130554;27;20064;-77
2023/12/07 02:47:23;;;;;;;5.05;4.15;;;;;;;-2.00;100.00;93213.81;2130568;27;20018;-77
2023/12/07 02:48:24;;;;;;;5.60;4.05;;;;;;;-1.96;100.00;93217.28;2130269;27;20071;-78
2023/12/07 02:49:25;;;;;;;5.65;3.83;;;;;;;-1.93;100.00;93219.22;2122404;27;20756;-78
2023/12/07 02:50:26;;;;;;;6.57;4.18;;;;;;;-1.92;100.00;93207.66;2122457;27;20026;-77
2023/12/07 02:51:27;;;;;;;4.78;3.85;;;;;;;-2.05;100.00;93212.19;2122948;27;20019;-80
2023/12/07 02:52:28;;;;;;;7.00;4.63;;;;;;;-2.20;100.00;93210.28;2122680;27;20051;-76
2023/12/07 02:53:29;;;;;;;4.85;4.15;;;;;;;-2.10;100.00;93209.81;2122784;27;20161;-79
2023/12/07 02:54:30;;;;;;;5.00;4.50;;;;;;;-2.01;100.00;93214.91;2128347;27;20026;-79
2023/12/07 02:55:31;;;;;;;5.50;4.50;;;;;;;-1.99;100.00;93205.59;2124439;27;20027;-76
2023/12/07 02:56:32;;;;;;;4.63;4.13;;;;;;;-2.04;100.00;93211.09;2122440;27;20102;-78
2023/12/07 02:57:35;;;;;;;7.15;3.90;;;;;;;-2.12;100.00;93214.59;2124158;27;20031;-76
2023/12/07 02:58:36;;;;;;;6.10;4.35;;;;;;;-2.13;100.00;93213.84;2123833;27;20336;-76
2023/12/07 02:59:37;;;;;;;6.80;4.05;;;;;;;-2.15;100.00;93207.41;2125766;27;20030;-78
2023/12/07 03:00:38;;;;;;;4.88;3.72;;;;;;;-2.34;100.00;93210.66;2131356;27;20090;-78
2023/12/07 03:01:40;;;;;;;6.90;3.95;;;;;;;-2.29;100.00;93213.78;2123134;27;20431;-78
2023/12/07 03:02:42;;;;;;;5.53;4.00;;;;;;;-2.19;100.00;93204.72;2121935;28;20055;-81
2023/12/07 03:03:45;;;;;;;7.47;4.10;;;;;;;-2.13;100.00;93207.84;2123835;27;20050;-81
2023/12/07 03:04:46;;;;;;;6.53;4.60;;;;;;;-2.10;100.00;93200.09;2130768;27;20871;-78
2023/12/07 03:05:47;;;;;;;6.45;4.07;;;;;;;-2.11;100.00;93203.81;2121611;28;20035;-76
2023/12/07 03:06:48;;;;;;;4.35;3.90;;;;;;;-2.06;100.00;93202.81;2125672;27;20023;-78
2023/12/07 03:07:49;;;;;;;6.75;4.22;;;;;;;-2.15;100.00;93204.78;2126383;27;20494;-76
2023/12/07 03:08:50;;;;;;;5.88;4.32;;;;;;;-2.15;100.00;93204.78;2130924;27;20030;-75
2023/12/07 03:09:51;;;;;;;5.05;4.05;;;;;;;-2.29;100.00;93207.78;2126085;27;20023;-79
2023/12/07 03:10:52;;;;;;;4.20;3.50;;;;;;;-2.30;100.00;93201.03;2127599;27;20023;-79
2023/12/07 03:11:53;;;;;;;5.55;4.13;;;;;;;-2.29;100.00;93205.94;2128166;27;20015;-77
2023/12/07 03:12:54;;;;;;;6.20;4.05;;;;;;;-2.35;100.00;93199.41;2127336;27;20097;-76
2023/12/07 03:14:05;;;;;;;4.30;3.90;;;;;;;-2.33;100.00;93197.25;2111789;28;20069;-79
2023/12/07 03:15:06;;;;;;;5.05;3.85;;;;;;;-2.29;100.00;93192.09;2116146;28;20030;-80
2023/12/07 03:16:09;;;;;;;5.90;3.95;;;;;;;-2.42;100.00;93199.22;2122728;27;20495;-78
2023/12/07 03:17:10;;;;;;;6.38;4.28;;;;;;;-2.37;100.00;93198.22;2121876;28;20023;-76
2023/12/07 03:18:11;;;;;;;4.18;3.50;;;;;;;-2.38;100.00;93197.44;2128597;27;20668;-76
2023/12/07 03:19:12;;;;;;;4.43;3.63;;;;;;;-2.43;100.00;93196.94;2132246;27;20030;-80
2023/12/07 03:20:13;;;;;;;5.57;3.97;;;;;;;-2.53;100.00;93192.94;2132324;27;20193;-75
2023/12/07 03:21:14;;;;;;;5.95;4.03;;;;;;;-2.51;100.00;93200.44;2123903;27;20023;-79
2023/12/07 03:22:15;;;;;;;6.65;4.45;;;;;;;-2.46;100.00;93187.13;2132022;27;20050;-78
2023/12/07 03:23:16;;;;;;;5.95;3.40;;;;;;;-2.49;100.00;93191.19;2132013;27;20027;-76
2023/12/07 03:24:17;;;;;;;5.78;3.63;;;;;;;-2.58;100.00;93193.16;2132125;27;20034;-78
2023/12/07 03:25:18;;;;;;;6.13;3.97;;;;;;;-2.47;100.00;93193.44;2131864;27;20027;-79
2023/12/07 03:26:19;;;;;;;6.35;4.85;;;;;;;-2.48;100.00;93197.16;2124381;27;20031;-76
2023/12/07 03:27:20;;;;;;;4.70;3.70;;;;;;;-2.48;100.00;93197.94;2123323;27;20075;-76
2023/12/07 03:28:21;;;;;;;5.15;3.95;;;;;;;-2.46;100.00;93202.81;2123841;27;20403;-77
2023/12/07 03:29:22;;;;;;;4.63;3.88;;;;;;;-2.45;100.00;93194.66;2128652;27;20140;-79
2023/12/07 03:30:23;;;;;;;4.72;3.80;;;;;;;-2.58;100.00;93199.16;2123035;27;20023;-80
2023/12/07 03:31:24;;;;;;;5.55;3.75;;;;;;;-2.67;100.00;93198.53;2122761;27;20038;-78
2023/12/07 03:32:25;;;;;;;4.63;3.83;;;;;;;-2.72;100.00;93206.59;2123709;27;20023;-77
2023/12/07 03:33:25;;;;;;;4.28;3.67;;;;;;;-2.71;100.00;93202.13;2124684;27;20110;-76
2023/12/07 03:34:26;;;;;;;6.65;4.15;;;;;;;-2.88;100.00;93208.34;2125475;27;20027;-76
2023/12/07 03:35:27;;;;;;;7.07;4.40;;;;;;;-2.73;100.00;93202.44;2129388;27;20807;-81
2023/12/07 03:36:28;;;;;;;5.10;4.07;;;;;;;-2.67;100.00;93201.13;2131838;27;20057;-78
2023/12/07 03:37:29;;;;;;;5.20;4.13;;;;;;;-2.87;100.00;93210.63;2129565;27;20044;-78
2023/12/07 03:38:30;;;;;;;5.70;3.90;;;;;;;-2.75;100.00;93207.25;2125104;27;20034;-80
2023/12/07 03:39:32;;;;;;;6.93;4.10;;;;;;;-2.70;100.00;93207.03;2132052;27;20030;-78
2023/12/07 03:40:33;;;;;;;7.35;4.43;;;;;;;-2.71;100.00;93208.13;2130202;27;20031;-80
2023/12/07 03:41:34;;;;;;;6.90;4.60;;;;;;;-2.82;100.00;93209.66;2129134;27;20053;-79
2023/12/07 03:42:35;;;;;;;4.95;4.10;;;;;;;-2.78;100.00;93213.88;2123221;27;20027;-78
2023/12/07 03:43:36;;;;;;;4.53;3.90;;;;;;;-2.88;100.00;93205.75;2129125;27;20030;-81
2023/12/07 03:44:37;;;;;;;6.63;4.53;;;;;;;-2.95;100.00;93205.53;2132111;27;20361;-79
2023/12/07 03:45:38;;;;;;;6.00;4.00;;;;;;;-2.91;100.00;93217.59;2131654;27;20025;-78
2023/12/07 03:46:42;;;;;;;6.07;4.40;;;;;;;-2.92;100.00;93216.09;2131456;27;20019;-77
2023/12/07 03:47:43;;;;;;;7.93;4.07;;;;;;;-2.93;100.00;93221.66;2132062;27;20083;-77
2023/12/07 03:48:44;;;;;;;4.95;4.00;;;;;;;-2.98;100.00;93217.41;2132950;27;20050;-76
2023/12/07 03:49:45;;;;;;;4.70;3.70;;;;;;;-3.03;100.00;93220.22;2132094;27;20494;-77
2023/12/07 03:50:46;;;;;;;7.07;4.10;;;;;;;-2.95;100.00;93218.59;2123374;27;20085;-77
2023/12/07 03:51:47;;;;;;;6.88;4.38;;;;;;;-2.93;100.00;93219.03;2123125;27;20060;-78
2023/12/07 03:52:48;;;;;;;7.03;4.35;;;;;;;-2.89;100.00;93217.31;2123684;27;20027;-79
2023/12/07 03:53:49;;;;;;;7.05;4.35;;;;;;;-2.90;100.00;93220.97;2123302;27;20030;-79
2023/12/07 03:54:50;;;;;;;7.13;3.92;;;;;;;-2.96;100.00;93219.69;2124131;27;20019;-75
2023/12/07 03:55:52;;;;;;;5.20;4.10;;;;;;;-2.95;100.00;93208.13;2123381;27;20046;-77
2023/12/07 03:56:53;;;;;;;5.45;4.40;;;;;;;-2.92;100.00;93210.09;2124272;27;20026;-76
2023/12/07 03:57:54;;;;;;;5.63;4.65;;;;;;;-2.93;100.00;93211.97;2124041;27;20388;-78
2023/12/07 03:58:56;;;;;;;5.57;4.40;;;;;;;-2.91;100.00;93215.00;2124234;27;20026;-77
2023/12/07 03:59:57;;;;;;;5.68;4.47;;;;;;;-2.86;100.00;93211.41;2131828;27;20038;-77
2023/12/07 04:00:58;;;;;;;4.70;3.88;;;;;;;-2.88;100.00;93211.72;2131467;27;20126;-77
2023/12/07 04:01:59;;;;;;;5.97;3.83;;;;;;;-2.88;100.00;93218.81;2123141;27;20031;-77
2023/12/07 04:03:00;;;;;;;4.43;3.72;;;;;;;-3.01;100.00;93212.06;2122956;27;20015;-76
2023/12/07 04:04:01;;;;;;;6.55;4.07;;;;;;;-2.95;100.00;93208.13;2126221;27;20034;-82
2023/12/07 04:05:02;;;;;;;7.90;4.40;;;;;;;-3.00;100.00;93211.72;2124125;27;20070;-78
2023/12/07 04:06:03;;;;;;;5.40;4.07;;;;;;;-3.00;100.00;93216.97;2124651;27;20463;-75
2023/12/07 04:07:06;;;;;;;5.13;4.30;;;;;;;-3.00;100.00;93213.59;2124799;27;20027;-79
2023/12/07 04:08:07;;;;;;;5.95;4.20;;;;;;;-2.98;100.00;93225.25;2116862;27;20042;-75
2023/12/07 04:09:08;;;;;;;7.95;4.50;;;;;;;-3.02;100.00;93218.41;2115598;27;20721;-77
2023/12/07 04:10:09;;;;;;;5.50;4.25;;;;;;;-3.08;100.00;93215.97;2125950;27;20383;-78
2023/12/07 04:11:10;;;;;;;6.68;4.55;;;;;;;-3.06;100.00;93218.28;2126323;27;20428;-77
2023/12/07 04:12:11;;;;;;;6.57;4.50;;;;;;;-3.02;100.00;93213.16;2127066;27;20038;-80
2023/12/07 04:13:12;;;;;;;6.10;4.63;;;;;;;-3.09;100.00;93211.84;2135765;27;20802;-75
2023/12/07 04:14:13;;;;;;;6.18;4.32;;;;;;;-3.17;100.00;93212.72;2140110;27;20690;-76
2023/12/07 04:15:14;;;;;;;4.63;3.67;;;;;;;-3.37;100.00;93211.75;2123743;27;20075;-77
2023/12/07 04:16:15;;;;;;;6.65;4.15;;;;;;;-3.34;100.00;93218.91;2123614;27;20027;-79
2023/12/07 04:17:16;;;;;;;6.18;3.97;;;;;;;-3.25;100.00;93218.81;2123640;27;20027;-78
2023/12/07 04:18:17;;;;;;;5.30;4.03;;;;;;;-3.16;100.00;93223.94;2122651;27;20031;-78
2023/12/07 04:19:18;;;;;;;6.28;4.05;;;;;;;-3.07;100.00;93222.00;2128124;27;20459;-77
2023/12/07 04:20:19;;;;;;;6.03;4.30;;;;;;;-3.01;100.00;93218.06;2132617;27;20046;-79
2023/12/07 04:21:20;;;;;;;5.32;4.25;;;;;;;-2.96;100.00;93211.84;2132216;27;20022;-76
2023/12/07 04:22:21;;;;;;;12.98;4.45;;;;;;;-2.76;100.00;93205.72;2125966;27;20036;-78
2023/12/07 04:23:22;;;;;;;8.55;4.97;;;;;;;-2.86;100.00;93214.00;2123880;27;20050;-80
2023/12/07 04:24:23;;;;;;;7.10;4.50;;;;;;;-3.02;100.00;93216.53;2131698;27;20061;-77
2023/12/07 04:25:24;;;;;;;7.18;4.38;;;;;;;-2.90;100.00;93208.66;2123205;27;20026;-77
2023/12/07 04:26:25;;;;;;;6.22;4.40;;;;;;;-2.83;100.00;93215.97;2131740;27;20026;-81
2023/12/07 04:27:26;;;;;;;5.65;4.43;;;;;;;-2.84;100.00;93222.31;2123175;27;20050;-78
2023/12/07 04:28:27;;;;;;;8.02;4.60;;;;;;;-2.86;100.00;93220.00;2114937;27;20047;-77
2023/12/07 04:29:28;;;;;;;5.55;4.18;;;;;;;-2.92;100.00;93217.94;2131863;27;20152;-80
2023/12/07 04:30:29;;;;;;;8.18;4.32;;;;;;;-2.91;100.00;93225.44;2124302;27;20034;-76
2023/12/07 04:31:35;;;;;;;5.95;4.30;;;;;;;-2.98;100.00;93217.41;2124775;27;20030;-76
2023/12/07 04:32:36;;;;;;;7.40;4.60;;;;;;;-2.91;100.00;93219.47;2123904;27;20360;-77
2023/12/07 04:33:37;;;;;;;8.10;4.82;;;;;;;-2.92;100.00;93221.31;2115972;27;20023;-79
2023/12/07 04:34:38;;;;;;;7.53;5.30;;;;;;;-3.14;100.00;93221.75;2130707;27;20110;-79
2023/12/07 04:35:40;;;;;;;8.45;4.80;;;;;;;-3.19;100.00;93222.75;2123851;27;20490;-77
2023/12/07 04:36:41;;;;;;;8.23;5.25;;;;;;;-3.12;100.00;93220.34;2116936;27;20446;-76
2023/12/07 04:37:42;;;;;;;7.05;4.80;;;;;;;-3.15;100.00;93225.47;2128301;27;20019;-80
2023/12/07 04:38:43;;;;;;;7.22;4.47;;;;;;;-3.08;100.00;93225.69;2131337;27;20033;-78
2023/12/07 04:39:43;;;;;;;5.47;4.25;;;;;;;-3.16;100.00;93222.09;2127996;27;20026;-79
2023/12/07 04:40:44;;;;;;;7.35;4.22;;;;;;;-3.15;100.00;93215.78;2123853;27;20085;-75
2023/12/07 04:41:45;;;;;;;7.13;4.53;;;;;;;-3.05;100.00;93217.94;2127675;27;20027;-80
2023/12/07 04:42:46;;;;;;;6.40;4.90;;;;;;;-2.94;100.00;93214.88;2126845;27;20019;-77
2023/12/07 04:43:47;;;;;;;7.80;4.93;;;;;;;-2.90;100.00;93213.13;2124772;27;20160;-77
2023/12/07 04:44:48;;;;;;;7.38;4.65;;;;;;;-3.08;100.00;93218.59;2127233;27;20076;-79
2023/12/07 04:45:49;;;;;;;5.80;4.95;;;;;;;-3.29;100.00;93223.19;2123967;27;20152;-80
2023/12/07 04:46:50;;;;;;;7.43;4.85;;;;;;;-3.27;100.00;93220.22;2126440;27;20804;-79
2023/12/07 04:47:51;;;;;;;5.93;4.75;;;;;;;-3.38;100.00;93227.72;2123056;27;20027;-80